Aérodrome :
LOGIN :

S'inscrire | Disclaimer

   EN    FR    IT 

 










Légende :    VFR   VFR Marginal   IFR   IFR Intensif   IFR Très Intensif
Visi : 
Plafond : 
>= 8 km
>= 3000ft
5 à 8 km
1000 à 3000 ft
1500m à 5 km
500 à 1000 ft
800 à 1500m
200 à 500 ft
< 800m
< 200 ft
Symboles :   Orages  Brouillard  Fortes neiges  Fortes précipitations  Vent > 20 kt
SIGMETs :   Divers  Orages  Givrage  Turbulence  Onde Orograph.  Cendres Volcan.






- Altitude de l'aérodrome : 63 ft
- Code IATA : BZM


EHWO - Woensdrecht Airbase

DERNIER METAR :
  • 231225Z AUTO 06009KT 030V110 9999 OVC110 15/12 Q1013 BLU 07010KT CAVOK

METARs EXPIRÉS :
  • 231155Z AUTO 08011KT 360V130 9999 OVC100 15/11 Q1013 BLU 07010KT CAVOK
  • 231125Z AUTO 07010KT 040V110 9999 OVC100 15/11 Q1013 BLU 07010KT CAVOK
  • 231055Z AUTO 08012KT 050V120 9000 BR OVC110 15/11 Q1014 BLU 07010KT 9000 FEW008 BKN140
  • 231039Z AUTO 08011KT 040V110 8000 BR OVC100 14/11 Q1014 BLU 07010KT 9000 FEW008 BKN140
  • 231025Z AUTO 08010KT 040V110 7000 BR OVC100 14/11 Q1015 WHT 07010KT 9000 FEW008 BKN140
  • 230955Z AUTO 07010KT 030V110 6000 BR OVC130 13/11 Q1015 WHT 07010KT 9000 FEW008 BKN140
  • 230943Z AUTO 08009KT 030V100 5000 BR OVC140 13/11 Q1015 WHT 06008KT 6000 FEW008 BKN140

TAF TAF EHWO
Valide du 23 à 09h jusqu'au 23 à 21h UTC


230855Z 2309/2321 08006KT 4000 NSC
BECMG 2309/2312 9999 NSW
PROB30
TEMPO 2309/2312 SCT007



MET'MAP, la Météo Aéronautique d'un coup d'oeil ! - Copyright ORBIFLY Décembre 2007 - Disclaimer

ORBIFLY MET'MAP TEAM :

Programmation & Développement : Alexandra Zaïnal
Conception & Développement : Baudouin d'Aumeries
Co-Programmation & Développement : Marc-Olivier Méhu
Soutien technique & logistique : Manuel Goepfert

Contact : metmap@orbifly.com




SOURCES & CREDITS :

   NOAA